Time;durP1;ratioP1;P1;durP2;ratioP2;P2;SDS_P1;SDS_P2;PMS_P1;PMS_P2;Temp;Humidity;BMP_temperature;BMP_pressure;BME280_temperature;BME280_humidity;BME280_pressure;Samples;Min_cycle;Max_cycle;Signal;HPM_P1;HPM_P2
2021/04/17 00:01:09;;;;;;;13.73;10.07;;;;;;;3.31;83.44;96726.72;5015542;28;20858;-86
2021/04/17 00:03:35;;;;;;;16.27;10.70;;;;;;;3.24;83.69;96719.19;5015531;28;20508;-85
2021/04/17 00:06:02;;;;;;;21.00;11.30;;;;;;;3.21;84.01;96718.22;5015692;28;20527;-85
2021/04/17 00:08:28;;;;;;;14.67;10.93;;;;;;;3.18;84.19;96711.16;5015323;28;20433;-85
2021/04/17 00:10:55;;;;;;;17.10;11.23;;;;;;;3.22;84.15;96713.59;5015369;28;20543;-84
2021/04/17 00:13:21;;;;;;;20.00;12.33;;;;;;;3.22;84.37;96706.34;5016196;28;20514;-85
2021/04/17 00:15:48;;;;;;;15.70;11.30;;;;;;;3.26;84.25;96705.38;5014975;28;20454;-85
2021/04/17 00:18:14;;;;;;;15.97;11.07;;;;;;;3.29;84.33;96702.44;5015487;28;20796;-84
2021/04/17 00:20:40;;;;;;;16.43;10.77;;;;;;;3.31;83.65;96700.06;5014481;28;20429;-84
2021/04/17 00:23:07;;;;;;;16.57;10.17;;;;;;;3.40;83.62;96707.09;5014919;28;20540;-84
2021/04/17 00:25:33;;;;;;;16.90;10.60;;;;;;;3.47;83.06;96699.34;5015613;28;20537;-83
2021/04/17 00:28:00;;;;;;;16.10;11.30;;;;;;;3.47;82.74;96695.94;5013897;28;20440;-84
2021/04/17 00:30:26;;;;;;;16.00;11.60;;;;;;;3.39;83.35;96692.28;5014738;28;20470;-85
2021/04/17 00:32:52;;;;;;;18.50;12.60;;;;;;;3.40;82.85;96693.75;5014518;28;20805;-85
2021/04/17 00:35:18;;;;;;;15.60;10.23;;;;;;;3.33;82.95;96686.22;5015505;28;20976;-85
2021/04/17 00:37:44;;;;;;;16.40;10.87;;;;;;;3.27;83.48;96688.88;5014828;28;20444;-83
2021/04/17 00:40:11;;;;;;;13.60;9.67;;;;;;;3.35;83.23;96694.47;5013885;28;20432;-84
2021/04/17 00:42:37;;;;;;;16.20;11.30;;;;;;;3.36;82.93;96687.91;5014323;28;20477;-84
2021/04/17 00:45:06;;;;;;;17.67;11.60;;;;;;;3.40;82.92;96680.41;5014051;28;20490;-84
2021/04/17 00:47:32;;;;;;;17.13;11.70;;;;;;;3.43;83.37;96680.19;5014905;28;20539;-84
2021/04/17 00:49:59;;;;;;;17.00;11.77;;;;;;;3.39;83.50;96686.94;5013289;28;20452;-84
2021/04/17 00:52:25;;;;;;;16.50;11.33;;;;;;;3.41;83.66;96677.28;5014089;28;20456;-84
2021/04/17 00:54:51;;;;;;;20.23;11.20;;;;;;;3.43;83.97;96680.19;5014445;28;20547;-83
2021/04/17 00:57:17;;;;;;;15.27;10.27;;;;;;;3.40;83.91;96678.47;5013882;28;21005;-84
2021/04/17 00:59:43;;;;;;;19.23;12.30;;;;;;;3.40;84.14;96669.75;5014190;28;20463;-84
2021/04/17 01:02:12;;;;;;;18.70;12.67;;;;;;;3.44;83.94;96670.97;5014493;28;20438;-85
2021/04/17 01:04:42;;;;;;;14.83;10.37;;;;;;;3.51;83.95;96675.81;5014416;28;20506;-85
2021/04/17 01:07:15;;;;;;;18.00;11.40;;;;;;;3.40;84.48;96665.16;5014223;28;20432;-85
2021/04/17 01:09:48;;;;;;;18.47;11.93;;;;;;;3.41;84.98;96681.88;5013466;28;20430;-85
2021/04/17 01:12:16;;;;;;;16.83;12.30;;;;;;;3.54;84.46;96674.84;5014700;28;20534;-85
2021/04/17 01:14:45;;;;;;;14.70;10.50;;;;;;;3.60;83.89;96677.53;5013390;28;20614;-84
2021/04/17 01:17:13;;;;;;;17.30;11.63;;;;;;;3.49;84.32;96667.56;5014191;28;20809;-83
2021/04/17 01:19:55;;;;;;;16.63;11.40;;;;;;;3.54;85.04;96669.50;5013734;28;20415;-84
2021/04/17 01:22:24;;;;;;;16.40;10.73;;;;;;;3.56;84.89;96674.38;5014274;28;20470;-83
2021/04/17 01:24:59;;;;;;;15.90;11.30;;;;;;;3.38;85.44;96664.91;5015074;28;20559;-84
2021/04/17 01:27:27;;;;;;;15.07;11.60;;;;;;;3.26;87.22;96668.75;5013423;28;20902;-84
2021/04/17 01:29:54;;;;;;;15.40;10.23;;;;;;;3.34;86.45;96663.69;5013642;28;20440;-84
2021/04/17 01:32:20;;;;;;;20.10;10.30;;;;;;;3.41;86.42;96671.22;5012982;28;20489;-85
2021/04/17 01:34:50;;;;;;;15.37;11.07;;;;;;;3.30;86.72;96663.19;5012789;28;20472;-85
2021/04/17 01:37:17;;;;;;;16.77;11.37;;;;;;;3.12;88.01;96657.13;5013842;28;20441;-86
2021/04/17 01:39:43;;;;;;;17.10;11.47;;;;;;;3.11;88.61;96662.91;5013817;28;20625;-85
2021/04/17 01:42:14;;;;;;;19.67;11.27;;;;;;;3.17;88.46;96653.72;5013445;28;20816;-86
2021/04/17 01:44:46;;;;;;;20.63;10.87;;;;;;;3.23;88.22;96651.06;5013597;28;20494;-85
2021/04/17 01:47:14;;;;;;;19.70;12.60;;;;;;;3.31;87.91;96652.06;5012997;28;20917;-85
2021/04/17 01:49:44;;;;;;;16.40;11.50;;;;;;;3.39;87.65;96646.94;5013086;28;20535;-84
2021/04/17 01:52:12;;;;;;;17.40;10.47;;;;;;;3.34;87.35;96648.41;5013348;28;20910;-85
2021/04/17 01:54:43;;;;;;;16.90;11.30;;;;;;;3.13;88.08;96641.84;5012745;28;20943;-86
2021/04/17 01:57:13;;;;;;;20.80;12.13;;;;;;;3.08;88.84;96645.97;5016080;28;20428;-85
2021/04/17 01:59:40;;;;;;;22.03;13.77;;;;;;;2.99;89.84;96648.13;5034494;27;20496;-84
2021/04/17 02:02:07;;;;;;;17.67;11.90;;;;;;;3.03;89.40;96646.69;5033740;27;20466;-85
2021/04/17 02:04:34;;;;;;;21.20;13.87;;;;;;;2.98;89.79;96657.31;5033585;27;20508;-85
2021/04/17 02:07:00;;;;;;;18.40;12.53;;;;;;;2.93;90.55;96637.47;5028556;28;20440;-85
2021/04/17 02:09:27;;;;;;;19.80;13.40;;;;;;;2.88;90.49;96643.50;5033570;27;21007;-83
2021/04/17 02:11:53;;;;;;;20.40;13.77;;;;;;;2.94;90.61;96641.59;5033198;27;20440;-83
2021/04/17 02:14:19;;;;;;;18.17;11.83;;;;;;;2.87;90.61;96641.31;5032971;27;20593;-85
2021/04/17 02:16:50;;;;;;;18.37;12.70;;;;;;;2.97;90.75;96637.97;5026030;27;20516;-85
2021/04/17 02:19:23;;;;;;;19.93;12.60;;;;;;;2.91;90.68;96644.47;5032712;27;20486;-84
2021/04/17 02:21:51;;;;;;;18.63;12.00;;;;;;;3.01;90.95;96640.38;5016063;28;20421;-85
2021/04/17 02:24:18;;;;;;;19.10;12.57;;;;;;;2.99;90.62;96637.47;5013799;28;20488;-84
2021/04/17 02:26:44;;;;;;;18.17;12.07;;;;;;;2.97;90.79;96637.97;5012919;28;20458;-86
2021/04/17 02:29:10;;;;;;;15.30;11.67;;;;;;;3.03;90.98;96638.69;5013270;28;20456;-86
2021/04/17 02:31:36;;;;;;;19.67;12.80;;;;;;;2.96;90.88;96639.16;5013174;28;20493;-85
2021/04/17 02:34:03;;;;;;;19.60;13.20;;;;;;;3.00;90.72;96639.66;5012915;28;20995;-85
2021/04/17 02:36:30;;;;;;;20.43;13.70;;;;;;;2.96;91.12;96638.44;5013139;28;20452;-85
2021/04/17 02:38:56;;;;;;;18.27;12.87;;;;;;;2.95;91.38;96637.69;5012619;28;20436;-85
2021/04/17 02:41:22;;;;;;;19.13;12.17;;;;;;;3.07;90.59;96641.13;5013163;28;20508;-85
2021/04/17 02:43:48;;;;;;;19.10;12.20;;;;;;;3.09;91.03;96642.09;5013732;28;20988;-85
2021/04/17 02:46:16;;;;;;;18.10;12.20;;;;;;;3.17;90.41;96637.00;5013334;28;20446;-85
2021/04/17 02:48:42;;;;;;;17.77;12.33;;;;;;;3.03;90.71;96636.03;5015338;28;21005;-84
2021/04/17 02:51:09;;;;;;;18.90;12.73;;;;;;;2.93;91.17;96629.47;5015496;28;20539;-84
2021/04/17 02:53:36;;;;;;;23.53;13.87;;;;;;;2.90;92.15;96624.38;5016875;28;21039;-84
2021/04/17 02:56:03;;;;;;;17.63;12.93;;;;;;;2.95;91.76;96632.38;5015509;28;20448;-84
2021/04/17 02:58:29;;;;;;;19.33;12.93;;;;;;;3.01;91.49;96635.03;5014654;28;20415;-83
2021/04/17 03:00:55;;;;;;;19.97;12.47;;;;;;;2.98;92.08;96630.66;5012836;28;20436;-84
2021/04/17 03:03:21;;;;;;;21.60;13.40;;;;;;;2.96;91.86;96633.84;5013044;28;20468;-84
2021/04/17 03:05:47;;;;;;;20.77;13.40;;;;;;;2.86;92.58;96624.59;5012815;28;20535;-86
2021/04/17 03:08:13;;;;;;;22.10;14.33;;;;;;;2.83;93.12;96627.50;5012780;28;20424;-84
2021/04/17 03:10:41;;;;;;;18.90;12.63;;;;;;;2.88;92.63;96622.19;5012793;28;20515;-84
2021/04/17 03:13:08;;;;;;;21.00;14.33;;;;;;;3.05;92.27;96624.88;5012477;28;20452;-84
2021/04/17 03:15:34;;;;;;;17.20;13.27;;;;;;;3.12;92.01;96622.47;5015258;28;20943;-83
2021/04/17 03:18:01;;;;;;;19.70;13.13;;;;;;;3.04;91.80;96624.13;5017026;28;20471;-83
2021/04/17 03:20:28;;;;;;;25.80;14.57;;;;;;;2.91;92.60;96617.84;5017985;28;20498;-84
2021/04/17 03:22:54;;;;;;;19.90;13.73;;;;;;;2.76;93.60;96617.34;5015525;28;20468;-83
2021/04/17 03:25:20;;;;;;;17.30;12.93;;;;;;;2.86;93.39;96623.88;5016858;28;20487;-85
2021/04/17 03:27:47;;;;;;;20.57;14.03;;;;;;;2.92;92.83;96620.00;5016165;28;20527;-85
2021/04/17 03:30:16;;;;;;;21.40;14.33;;;;;;;2.81;93.61;96619.25;5015885;28;20440;-84
2021/04/17 03:32:42;;;;;;;18.00;13.20;;;;;;;2.76;93.86;96618.03;5016228;28;20529;-85
2021/04/17 03:35:11;;;;;;;23.23;13.97;;;;;;;2.84;94.27;96619.03;5016245;28;20841;-86
2021/04/17 03:37:38;;;;;;;23.63;14.43;;;;;;;2.80;94.06;96613.22;5015637;28;20422;-85
2021/04/17 03:40:07;;;;;;;29.53;16.77;;;;;;;2.78;94.34;96612.97;5016174;28;20459;-85
2021/04/17 03:42:33;;;;;;;26.27;15.90;;;;;;;2.72;94.41;96610.28;5015632;28;20417;-85
2021/04/17 03:45:00;;;;;;;20.23;15.30;;;;;;;2.84;94.51;96619.03;5016584;28;21075;-85
2021/04/17 03:47:26;;;;;;;22.13;15.50;;;;;;;2.82;94.33;96624.09;5015804;28;20454;-85
2021/04/17 03:49:53;;;;;;;19.90;15.37;;;;;;;2.99;94.19;96624.13;5016375;28;20519;-85
2021/04/17 03:52:19;;;;;;;22.03;14.63;;;;;;;2.91;94.54;96615.91;5015130;28;20428;-85
2021/04/17 03:54:45;;;;;;;21.20;15.03;;;;;;;2.95;94.36;96613.72;5015951;28;20653;-85
2021/04/17 03:57:11;;;;;;;21.27;15.23;;;;;;;2.89;94.51;96618.31;5015995;28;20596;-85
2021/04/17 03:59:37;;;;;;;24.20;15.90;;;;;;;2.86;94.58;96624.59;5015674;28;20461;-86
2021/04/17 04:02:04;;;;;;;24.93;16.67;;;;;;;2.94;94.30;96625.59;5016039;28;20451;-86
2021/04/17 04:04:30;;;;;;;20.30;15.10;;;;;;;2.91;94.82;96631.16;5015407;28;20574;-85
2021/04/17 04:06:56;;;;;;;27.33;16.27;;;;;;;2.77;95.23;96637.41;5015541;28;20451;-85
2021/04/17 04:09:22;;;;;;;23.30;16.03;;;;;;;2.78;95.31;96636.94;5017219;28;20454;-85
2021/04/17 04:11:48;;;;;;;27.00;16.43;;;;;;;2.74;95.83;96631.13;5019168;28;20830;-83
2021/04/17 04:14:15;;;;;;;24.40;16.07;;;;;;;2.82;95.61;96639.38;5017300;28;20544;-84
2021/04/17 04:16:41;;;;;;;24.20;16.90;;;;;;;2.74;95.62;96638.38;5015410;28;20625;-84
2021/04/17 04:19:08;;;;;;;27.00;17.97;;;;;;;2.77;95.76;96640.81;5014488;28;20441;-84
2021/04/17 04:21:34;;;;;;;25.07;17.63;;;;;;;2.85;95.78;96646.41;5016112;28;20440;-84
2021/04/17 04:24:00;;;;;;;28.57;18.47;;;;;;;2.81;95.60;96641.31;5016717;28;20564;-84
2021/04/17 04:26:26;;;;;;;22.80;17.37;;;;;;;2.80;95.84;96634.53;5015511;28;20523;-85
2021/04/17 04:28:52;;;;;;;23.90;16.90;;;;;;;2.83;95.43;96641.56;5015033;28;20439;-85
2021/04/17 04:31:18;;;;;;;24.60;16.87;;;;;;;2.79;95.94;96638.38;5015267;28;20436;-85
2021/04/17 04:33:44;;;;;;;24.93;16.87;;;;;;;2.83;95.44;96638.88;5014966;28;20547;-84
2021/04/17 04:36:11;;;;;;;25.03;16.53;;;;;;;2.98;95.25;96636.72;5016304;28;20497;-85
2021/04/17 04:38:37;;;;;;;22.70;15.60;;;;;;;2.94;94.67;96632.88;5015049;28;20440;-85
2021/04/17 04:41:05;;;;;;;25.23;16.37;;;;;;;3.17;93.72;96635.06;5015924;28;20476;-85
2021/04/17 04:43:31;;;;;;;25.27;15.40;;;;;;;3.23;93.20;96637.72;5015955;28;20995;-84
2021/04/17 04:45:57;;;;;;;25.13;17.57;;;;;;;3.09;93.29;96641.38;5016950;28;20482;-84
2021/04/17 04:48:23;;;;;;;23.60;15.97;;;;;;;3.18;93.38;96643.78;5015625;28;20430;-83
2021/04/17 04:50:49;;;;;;;28.50;16.87;;;;;;;3.12;93.40;96635.78;5015613;28;20429;-86
2021/04/17 04:53:16;;;;;;;23.83;16.13;;;;;;;3.04;93.96;96634.81;5016949;28;20535;-85
2021/04/17 04:55:42;;;;;;;24.23;13.87;;;;;;;3.05;93.48;96643.53;5016473;28;20452;-84
2021/04/17 04:58:08;;;;;;;26.93;17.50;;;;;;;2.95;94.32;96643.03;5015000;28;20436;-86
2021/04/17 05:00:34;;;;;;;30.00;18.13;;;;;;;2.84;95.33;96648.34;5015264;28;20441;-86
2021/04/17 05:03:00;;;;;;;25.73;17.03;;;;;;;2.89;95.02;96647.63;5014502;28;20461;-84
2021/04/17 05:05:26;;;;;;;26.60;17.40;;;;;;;3.13;94.62;96644.53;5014326;28;20992;-84
2021/04/17 05:07:53;;;;;;;24.13;16.70;;;;;;;3.21;93.14;96648.16;5014712;28;20527;-84
2021/04/17 05:10:20;;;;;;;28.47;17.70;;;;;;;3.22;93.38;96649.63;5015998;28;20523;-84
2021/04/17 05:12:46;;;;;;;23.83;17.60;;;;;;;3.24;93.02;96647.19;5014669;28;20448;-85
2021/04/17 05:15:12;;;;;;;26.13;16.90;;;;;;;3.31;92.63;96646.72;5015093;28;20460;-84
2021/04/17 05:17:38;;;;;;;22.83;16.87;;;;;;;3.32;92.43;96647.44;5014666;28;20448;-85
2021/04/17 05:20:06;;;;;;;27.57;16.93;;;;;;;3.32;92.53;96642.13;5015044;28;20525;-85
2021/04/17 05:22:32;;;;;;;23.80;15.93;;;;;;;3.35;92.06;96646.47;5015664;28;20576;-85
2021/04/17 05:24:58;;;;;;;29.00;17.07;;;;;;;3.42;91.95;96649.38;5015041;28;20582;-84
2021/04/17 05:27:25;;;;;;;32.23;17.30;;;;;;;3.51;91.73;96651.09;5015021;28;20455;-85
2021/04/17 05:29:51;;;;;;;30.07;18.07;;;;;;;3.54;91.28;96647.47;5015786;28;20600;-83
2021/04/17 05:32:18;;;;;;;28.93;17.20;;;;;;;3.61;90.62;96653.00;5015759;28;20591;-85
2021/04/17 05:34:44;;;;;;;27.93;18.33;;;;;;;3.49;91.47;96650.84;5015527;28;20452;-85
2021/04/17 05:37:10;;;;;;;25.13;17.70;;;;;;;3.54;91.29;96658.13;5014653;28;20878;-85
2021/04/17 05:39:36;;;;;;;25.83;17.47;;;;;;;3.64;91.17;96653.97;5014902;28;20530;-86
2021/04/17 05:42:03;;;;;;;28.40;17.77;;;;;;;3.69;90.49;96663.94;5014734;28;20605;-86
2021/04/17 05:44:30;;;;;;;27.07;18.13;;;;;;;3.66;90.57;96660.31;5015063;28;20531;-86
2021/04/17 05:46:56;;;;;;;28.40;18.90;;;;;;;3.74;90.59;96655.94;5015647;28;20507;-86
2021/04/17 05:49:22;;;;;;;26.60;16.67;;;;;;;3.85;89.90;96652.53;5014728;28;20476;-85
2021/04/17 05:51:48;;;;;;;28.13;17.90;;;;;;;3.88;89.64;96659.56;5015657;28;20423;-85
2021/04/17 05:54:14;;;;;;;26.07;16.27;;;;;;;4.04;89.18;96648.09;5014622;28;20488;-85
2021/04/17 05:56:41;;;;;;;28.40;18.90;;;;;;;4.04;88.54;96655.41;5015616;28;20440;-86
2021/04/17 05:59:07;;;;;;;26.03;17.87;;;;;;;4.07;88.15;96660.47;5015360;28;20944;-86
2021/04/17 06:01:34;;;;;;;28.00;18.60;;;;;;;4.05;88.22;96652.22;5014427;28;20458;-86
2021/04/17 06:04:00;;;;;;;28.00;17.20;;;;;;;4.03;88.41;96657.34;5014883;28;20492;-86
2021/04/17 06:06:26;;;;;;;27.83;17.90;;;;;;;4.03;88.47;96652.00;5016375;28;20785;-86
2021/04/17 06:08:53;;;;;;;32.47;17.83;;;;;;;3.92;88.67;96659.28;5014520;28;20941;-85
2021/04/17 06:11:19;;;;;;;27.57;17.20;;;;;;;3.95;88.51;96663.66;5014750;28;20807;-86
2021/04/17 06:13:45;;;;;;;24.60;17.53;;;;;;;4.18;88.06;96667.75;5014454;28;20574;-86
2021/04/17 06:16:11;;;;;;;27.00;17.30;;;;;;;4.19;87.75;96661.94;5014373;28;20535;-86
2021/04/17 06:18:38;;;;;;;20.43;15.10;;;;;;;4.33;87.19;96671.59;5013578;28;20452;-87
2021/04/17 06:21:05;;;;;;;30.10;18.50;;;;;;;4.41;86.19;96671.09;5014594;28;20433;-85
2021/04/17 06:23:32;;;;;;;27.50;16.97;;;;;;;4.40;86.58;96669.63;5013887;28;20474;-86
2021/04/17 06:25:58;;;;;;;33.30;19.90;;;;;;;4.46;86.21;96670.31;5014607;28;20448;-86
2021/04/17 06:28:24;;;;;;;29.27;18.80;;;;;;;4.47;86.14;96663.78;5015576;28;20503;-86
2021/04/17 06:30:50;;;;;;;24.27;16.53;;;;;;;4.68;85.29;96664.91;5014429;28;20495;-87
2021/04/17 06:33:16;;;;;;;30.57;19.90;;;;;;;4.85;84.52;96665.56;5014666;28;20503;-86
2021/04/17 06:35:43;;;;;;;31.27;17.90;;;;;;;4.99;83.29;96671.78;5014569;28;20435;-86
2021/04/17 06:38:12;;;;;;;27.30;17.23;;;;;;;4.93;83.06;96671.09;5013388;28;20483;-86
2021/04/17 06:40:39;;;;;;;30.83;18.33;;;;;;;5.21;81.79;96679.69;5015317;28;20451;-86
2021/04/17 06:43:06;;;;;;;25.50;17.80;;;;;;;5.34;80.78;96677.19;5014061;28;20590;-86
2021/04/17 06:45:34;;;;;;;26.77;16.67;;;;;;;5.23;82.00;96674.59;5015715;28;21046;-86
2021/04/17 06:48:01;;;;;;;29.63;15.57;;;;;;;5.66;80.42;96670.13;5017287;28;20452;-86
2021/04/17 06:50:27;;;;;;;26.70;17.73;;;;;;;5.63;79.50;96670.41;5017212;28;20440;-86
2021/04/17 06:52:55;;;;;;;29.67;18.30;;;;;;;5.66;79.24;96664.06;5015776;28;22382;-86
2021/04/17 06:55:23;;;;;;;26.60;15.57;;;;;;;5.96;78.69;96656.75;5020756;28;20537;-93
2021/04/17 06:57:50;;;;;;;26.70;17.03;;;;;;;6.36;76.37;96661.19;5017557;28;20770;-86
2021/04/17 07:00:19;;;;;;;25.67;17.30;;;;;;;6.61;75.87;96663.88;5016645;28;20436;-87
2021/04/17 07:02:45;;;;;;;23.00;15.37;;;;;;;6.38;73.83;96664.13;5018070;28;20855;-86
2021/04/17 07:05:12;;;;;;;24.90;16.47;;;;;;;6.61;74.22;96666.56;5017856;28;20491;-86
2021/04/17 07:07:38;;;;;;;22.57;15.43;;;;;;;6.63;72.90;96664.09;5001821;28;20773;-85
2021/04/17 07:10:07;;;;;;;30.23;15.87;;;;;;;6.66;73.14;96669.16;4999762;28;20811;-85
2021/04/17 07:12:33;;;;;;;32.70;18.13;;;;;;;6.74;72.82;96671.97;4998369;28;20432;-85
2021/04/17 07:15:04;;;;;;;29.07;16.67;;;;;;;6.66;72.61;96671.84;5013782;28;20539;-86
2021/04/17 07:17:33;;;;;;;25.27;15.93;;;;;;;6.94;72.74;96676.84;5019534;28;20413;-87
2021/04/17 07:20:00;;;;;;;24.40;16.00;;;;;;;6.90;72.15;96671.78;5029731;28;20444;-86
2021/04/17 07:22:29;;;;;;;23.50;15.87;;;;;;;7.47;70.91;96678.56;5031816;28;20432;-84
2021/04/17 07:25:12;;;;;;;18.60;13.30;;;;;;;7.96;69.04;96680.94;5029090;28;20484;-85
2021/04/17 07:27:41;;;;;;;23.53;15.90;;;;;;;8.28;67.95;96681.63;5025786;28;20523;-84
2021/04/17 07:30:25;;;;;;;20.17;14.63;;;;;;;8.29;65.08;96688.47;5018157;28;20521;-86
2021/04/17 07:33:06;;;;;;;19.20;13.83;;;;;;;8.36;65.91;96677.09;5018116;28;20559;-85
2021/04/17 07:35:34;;;;;;;20.53;15.20;;;;;;;8.82;64.29;96677.69;5016781;28;20437;-85
2021/04/17 07:38:13;;;;;;;18.30;13.97;;;;;;;9.28;62.78;96679.63;5017723;28;20430;-85
2021/04/17 07:40:39;;;;;;;21.90;14.60;;;;;;;8.97;61.91;96675.91;5019219;28;20489;-86
2021/04/17 07:43:06;;;;;;;24.43;15.70;;;;;;;9.65;60.55;96673.88;5018419;28;20437;-87
2021/04/17 07:45:34;;;;;;;21.80;14.67;;;;;;;9.78;60.07;96681.19;5017538;28;20492;-86
2021/04/17 07:48:18;;;;;;;20.93;14.27;;;;;;;9.61;60.27;96683.56;5018529;28;20443;-86
2021/04/17 07:50:45;;;;;;;24.27;12.23;;;;;;;8.90;61.47;96673.84;5017923;28;20505;-85
2021/04/17 07:53:25;;;;;;;18.83;13.20;;;;;;;9.37;59.14;96673.81;5017821;28;20538;-86
2021/04/17 07:55:51;;;;;;;22.20;12.00;;;;;;;9.74;55.77;96669.31;5018590;28;20773;-86
2021/04/17 07:58:18;;;;;;;18.23;12.40;;;;;;;9.48;57.21;96668.19;5018766;28;20444;-86
2021/04/17 08:00:45;;;;;;;17.00;13.23;;;;;;;9.82;56.89;96678.16;5017758;28;20827;-86
2021/04/17 08:03:13;;;;;;;21.83;13.27;;;;;;;9.90;58.09;96671.56;5019230;28;20491;-85
2021/04/17 08:05:40;;;;;;;20.30;11.07;;;;;;;9.74;55.96;96672.00;5019228;28;20468;-86
2021/04/17 08:08:06;;;;;;;16.77;12.67;;;;;;;10.18;56.55;96676.28;5019403;28;20505;-86
2021/04/17 08:10:32;;;;;;;14.93;11.50;;;;;;;10.08;56.72;96672.63;5023496;27;20448;-86
2021/04/17 08:13:00;;;;;;;19.13;13.37;;;;;;;10.21;56.56;96665.16;5037262;27;20508;-86
2021/04/17 08:15:28;;;;;;;14.57;10.73;;;;;;;10.06;55.89;96667.75;5036577;27;20418;-85
2021/04/17 08:17:54;;;;;;;16.53;11.20;;;;;;;9.95;56.04;96667.31;5031450;27;20453;-85
2021/04/17 08:20:21;;;;;;;19.47;13.27;;;;;;;8.87;60.73;96666.06;5017946;28;20424;-85
2021/04/17 08:22:49;;;;;;;16.00;11.50;;;;;;;8.92;60.84;96657.91;5019297;28;20494;-85
2021/04/17 08:25:19;;;;;;;15.03;11.63;;;;;;;9.23;59.58;96661.66;5017031;28;20523;-84
2021/04/17 08:27:46;;;;;;;17.63;12.20;;;;;;;8.86;59.51;96656.56;5017418;28;20490;-85
2021/04/17 08:30:19;;;;;;;16.23;12.17;;;;;;;8.87;60.60;96649.94;5017419;28;20539;-85
2021/04/17 08:32:46;;;;;;;17.03;10.47;;;;;;;8.93;59.89;96656.66;5015997;28;20455;-86
2021/04/17 08:35:14;;;;;;;13.83;10.10;;;;;;;8.74;60.45;96645.28;5014971;28;20394;-86
2021/04/17 08:38:08;;;;;;;17.80;11.83;;;;;;;8.72;60.91;96636.31;5015137;28;20501;-86
2021/04/17 08:40:51;;;;;;;18.50;11.43;;;;;;;8.79;61.24;96649.13;5014910;28;20897;-86
2021/04/17 08:43:32;;;;;;;16.20;11.27;;;;;;;8.78;60.99;96643.03;5014919;28;20471;-86
2021/04/17 08:46:00;;;;;;;17.73;13.03;;;;;;;8.71;61.55;96646.34;5016090;28;20530;-84
2021/04/17 08:48:50;;;;;;;16.60;12.40;;;;;;;8.37;62.92;96648.22;5019573;28;20510;-85
2021/04/17 08:51:28;;;;;;;21.73;13.20;;;;;;;8.59;62.80;96648.53;5020405;28;20505;-83
2021/04/17 08:54:15;;;;;;;22.60;13.87;;;;;;;8.58;62.72;96644.38;5027861;28;20549;-84
2021/04/17 08:56:55;;;;;;;21.37;14.07;;;;;;;9.03;61.16;96646.88;5030906;28;20438;-84
2021/04/17 08:59:24;;;;;;;16.03;12.03;;;;;;;9.23;60.20;96637.41;5026991;28;20460;-84
2021/04/17 09:01:52;;;;;;;17.40;13.40;;;;;;;9.42;60.00;96648.72;5025849;28;20399;-86
2021/04/17 09:04:21;;;;;;;15.70;11.87;;;;;;;8.80;60.82;96651.28;5032269;28;20464;-84
2021/04/17 09:06:48;;;;;;;14.53;10.20;;;;;;;8.45;61.53;96652.50;5031383;28;20415;-86
2021/04/17 09:09:25;;;;;;;13.53;9.03;;;;;;;8.14;61.19;96644.50;5030665;28;20468;-86
2021/04/17 09:11:53;;;;;;;15.37;10.60;;;;;;;7.80;62.99;96649.72;5032595;27;20460;-84
2021/04/17 09:14:55;;;;;;;16.90;11.30;;;;;;;8.18;62.58;96651.00;5027379;27;20512;-87
2021/04/17 09:17:45;;;;;;;14.53;9.57;;;;;;;8.22;62.16;96648.72;5020011;28;20477;-87
2021/04/17 09:20:28;;;;;;;14.17;9.00;;;;;;;8.28;61.46;96638.63;5019161;28;20470;-89
2021/04/17 09:22:54;;;;;;;12.83;9.30;;;;;;;8.66;60.55;96638.38;5016074;28;20458;-87
2021/04/17 09:25:47;;;;;;;14.87;10.80;;;;;;;8.62;59.87;96638.69;5019450;28;20835;-87
2021/04/17 09:28:14;;;;;;;14.37;9.57;;;;;;;8.61;59.33;96643.34;5032672;28;20438;-87
2021/04/17 09:30:40;;;;;;;11.70;8.47;;;;;;;8.56;59.00;96640.78;5018750;28;20440;-87
2021/04/17 09:33:07;;;;;;;13.47;8.80;;;;;;;8.51;58.27;96639.66;5018001;28;20491;-86
2021/04/17 09:35:36;;;;;;;15.07;9.47;;;;;;;8.66;57.94;96639.13;5018707;28;21000;-87
2021/04/17 09:38:11;;;;;;;13.40;9.57;;;;;;;8.84;58.62;96632.13;5018685;28;20419;-87
2021/04/17 09:40:41;;;;;;;14.70;9.60;;;;;;;8.80;59.23;96626.38;5018178;28;20432;-86
2021/04/17 09:43:09;;;;;;;16.60;9.50;;;;;;;8.91;58.60;96631.50;5017461;28;20419;-87
2021/04/17 09:45:38;;;;;;;10.50;6.83;;;;;;;8.76;56.94;96637.44;5018563;28;20550;-87
2021/04/17 09:48:06;;;;;;;8.63;6.63;;;;;;;8.90;56.29;96627.34;5018279;28;20462;-87
2021/04/17 09:50:35;;;;;;;9.13;6.80;;;;;;;8.94;55.67;96625.09;5017989;28;20458;-87
2021/04/17 09:53:17;;;;;;;10.83;7.17;;;;;;;8.84;56.77;96621.38;5019713;28;20478;-88
2021/04/17 09:55:48;;;;;;;11.50;7.60;;;;;;;8.98;55.58;96615.44;5020286;28;20907;-87
2021/04/17 09:58:21;;;;;;;10.97;7.83;;;;;;;8.49;57.25;96609.84;5019700;28;20419;-87
2021/04/17 10:00:48;;;;;;;10.63;8.03;;;;;;;8.47;57.95;96612.34;5020858;28;20407;-87
2021/04/17 10:03:25;;;;;;;15.93;8.23;;;;;;;8.25;58.72;96618.13;5018972;28;20457;-86
2021/04/17 10:05:52;;;;;;;10.77;7.37;;;;;;;8.27;58.91;96610.25;5019165;28;20544;-86
2021/04/17 10:08:26;;;;;;;12.40;7.80;;;;;;;8.24;58.84;96608.63;5017748;28;20437;-87
2021/04/17 10:10:52;;;;;;;11.73;8.37;;;;;;;8.42;58.33;96604.41;5017853;28;20415;-86
2021/04/17 10:13:37;;;;;;;10.83;8.90;;;;;;;8.59;58.22;96604.78;5017258;28;20535;-85
2021/04/17 10:16:03;;;;;;;14.00;8.80;;;;;;;8.46;58.64;96602.09;5031852;28;20587;-86
2021/04/17 10:18:30;;;;;;;13.83;8.50;;;;;;;8.69;57.78;96599.69;5036594;28;20406;-85
2021/04/17 10:20:58;;;;;;;12.03;8.97;;;;;;;8.84;57.57;96605.97;5045052;28;20481;-85
2021/04/17 10:23:24;;;;;;;13.57;8.70;;;;;;;8.81;57.55;96601.63;5053725;27;20447;-84
2021/04/17 10:25:50;;;;;;;13.33;8.50;;;;;;;8.96;56.86;96601.78;5052841;27;20442;-86
2021/04/17 10:28:20;;;;;;;13.60;8.50;;;;;;;9.01;56.65;96597.53;5052852;27;20421;-86
2021/04/17 10:30:48;;;;;;;14.50;8.70;;;;;;;9.06;56.69;96596.66;5044180;28;20406;-86
2021/04/17 10:33:16;;;;;;;11.17;8.67;;;;;;;9.01;56.13;96595.56;5039278;28;20929;-87
2021/04/17 10:35:44;;;;;;;11.60;8.10;;;;;;;9.24;55.81;96598.47;5044880;28;20430;-86
2021/04/17 10:38:22;;;;;;;11.13;7.77;;;;;;;9.27;54.80;96597.41;5038983;28;20961;-85
2021/04/17 10:40:48;;;;;;;9.90;7.30;;;;;;;9.06;55.14;96588.59;5036981;28;20398;-85
2021/04/17 10:43:16;;;;;;;10.60;8.03;;;;;;;9.22;55.11;96592.88;5036358;28;20468;-85
2021/04/17 10:45:43;;;;;;;14.73;9.33;;;;;;;9.41;55.61;96587.31;5021338;28;20482;-85
2021/04/17 10:48:13;;;;;;;13.17;8.57;;;;;;;9.44;54.70;96589.66;5015290;28;20456;-87
2021/04/17 10:50:41;;;;;;;11.63;7.50;;;;;;;9.21;54.48;96588.72;5015054;28;20877;-86
2021/04/17 10:53:09;;;;;;;10.50;6.93;;;;;;;9.11;55.12;96577.00;5014499;28;20544;-86
2021/04/17 10:55:41;;;;;;;15.37;7.20;;;;;;;9.18;55.03;96575.63;5015278;28;20448;-86
2021/04/17 10:58:21;;;;;;;11.20;7.47;;;;;;;9.43;54.27;96577.44;5014977;28;20477;-86
2021/04/17 11:00:50;;;;;;;9.20;7.37;;;;;;;9.46;53.88;96581.06;5014438;28;20399;-86
2021/04/17 11:03:16;;;;;;;11.33;7.87;;;;;;;9.30;54.15;96572.16;5014952;28;21218;-86
2021/04/17 11:05:44;;;;;;;11.50;7.90;;;;;;;9.09;54.68;96571.41;5015486;28;20465;-86
2021/04/17 11:08:10;;;;;;;9.60;6.90;;;;;;;9.26;54.68;96571.75;5014203;28;20944;-85
2021/04/17 11:10:38;;;;;;;10.47;7.00;;;;;;;9.15;54.64;96577.38;5015697;28;20411;-85
2021/04/17 11:13:05;;;;;;;14.50;7.20;;;;;;;9.10;54.59;96568.19;5015007;28;20544;-85
2021/04/17 11:15:33;;;;;;;12.20;7.60;;;;;;;9.10;54.90;96562.81;5015462;28;20407;-86
2021/04/17 11:18:23;;;;;;;13.93;7.37;;;;;;;9.40;54.75;96556.22;5014901;28;20425;-86
2021/04/17 11:20:55;;;;;;;8.97;6.77;;;;;;;9.21;53.90;96556.44;5024365;28;20467;-86
2021/04/17 11:23:39;;;;;;;7.63;6.17;;;;;;;8.95;54.66;96549.22;5014970;28;20510;-86
2021/04/17 11:26:07;;;;;;;15.47;7.70;;;;;;;8.99;54.47;96546.22;5015493;28;20451;-87
2021/04/17 11:28:34;;;;;;;10.53;6.27;;;;;;;9.07;55.04;96547.72;5014722;28;20431;-86
2021/04/17 11:31:00;;;;;;;10.47;7.00;;;;;;;8.88;55.33;96552.56;5014843;28;20462;-85
2021/04/17 11:33:27;;;;;;;11.47;6.23;;;;;;;8.94;55.00;96536.28;5016024;28;20514;-87